Accueil
METAR-TAF:

METAR-TAF

Aéroports :

Plate-forme pétrolière

Euro, Pays-Bas

latitude: 51-59-52N, longitude: 3-16-30E, altitude: 18 m

Observation

Le bulletin a été fait il y a 38 minutes, à 14:25 UTC
Vent 32 kt de sud/sud-ouest
Température 11°C
Humidité 82%
Pression 1003 hPa
Visibilité: 8000 m
pluie faible, bruine

METAR: EHSA 281425Z AUTO 20032KT 8000 -RADZ ///////// 11/08 Q1003 W12/H22

Heure: 16:03 (15:03 UTC)


TAF: absent

Observations et prévisions météorologiques de plus de 4000 aéroports (messages METAR et TAF).

Les stations disponibles sont représentées par des disques jaunes et rouges sur la carte.

Passer la souris dessus pour voir le nom de la station.

Cliquer dessus pour voir les observations et prévisions météorologiques.

Pour changer de carte: cliquez sur les boutons verts avec une croix noire pour zoomer, sur le bouton vert avec un tiret pour effectuer un zoom arrière, ou sur les flèches vertes pour les cartes adjacentes.


METAR-TAF: